sensor_id;sensor_type;location;lat;lon;timestamp;P1;durP1;ratioP1;P2;durP2;ratioP2
35028;SDS011;35394;54.282;10.070;2023-12-28T00:00:26;13.55;;;7.97;;
35028;SDS011;35394;54.282;10.070;2023-12-28T00:00:57;12.15;;;8.15;;
35028;SDS011;35394;54.282;10.070;2023-12-28T00:01:27;11.60;;;8.20;;
35028;SDS011;35394;54.282;10.070;2023-12-28T00:01:58;13.53;;;8.30;;
35028;SDS011;35394;54.282;10.070;2023-12-28T00:02:28;14.13;;;8.48;;
35028;SDS011;35394;54.282;10.070;2023-12-28T00:02:59;15.80;;;8.23;;
35028;SDS011;35394;54.282;10.070;2023-12-28T00:03:29;13.30;;;8.60;;
35028;SDS011;35394;54.282;10.070;2023-12-28T00:04:00;13.37;;;8.30;;
35028;SDS011;35394;54.282;10.070;2023-12-28T00:04:30;15.60;;;8.75;;
35028;SDS011;35394;54.282;10.070;2023-12-28T00:05:03;14.23;;;8.48;;
35028;SDS011;35394;54.282;10.070;2023-12-28T00:05:33;15.48;;;8.27;;
35028;SDS011;35394;54.282;10.070;2023-12-28T00:06:04;13.05;;;8.52;;
35028;SDS011;35394;54.282;10.070;2023-12-28T00:06:35;13.65;;;8.70;;
35028;SDS011;35394;54.282;10.070;2023-12-28T00:07:06;12.17;;;8.40;;
35028;SDS011;35394;54.282;10.070;2023-12-28T00:07:36;12.68;;;8.40;;
35028;SDS011;35394;54.282;10.070;2023-12-28T00:08:07;13.37;;;8.50;;
35028;SDS011;35394;54.282;10.070;2023-12-28T00:08:37;13.38;;;8.15;;
35028;SDS011;35394;54.282;10.070;2023-12-28T00:09:08;14.23;;;8.40;;
35028;SDS011;35394;54.282;10.070;2023-12-28T00:09:39;15.10;;;8.70;;
35028;SDS011;35394;54.282;10.070;2023-12-28T00:10:10;12.35;;;8.18;;
35028;SDS011;35394;54.282;10.070;2023-12-28T00:10:41;15.25;;;8.80;;
35028;SDS011;35394;54.282;10.070;2023-12-28T00:11:11;14.57;;;8.57;;
35028;SDS011;35394;54.282;10.070;2023-12-28T00:11:42;13.48;;;8.32;;
35028;SDS011;35394;54.282;10.070;2023-12-28T00:12:12;14.93;;;8.47;;
35028;SDS011;35394;54.282;10.070;2023-12-28T00:12:43;12.73;;;8.40;;
35028;SDS011;35394;54.282;10.070;2023-12-28T00:13:13;12.73;;;8.10;;
35028;SDS011;35394;54.282;10.070;2023-12-28T00:13:44;13.83;;;8.27;;
35028;SDS011;35394;54.282;10.070;2023-12-28T00:14:14;13.05;;;7.90;;
35028;SDS011;35394;54.282;10.070;2023-12-28T00:14:45;12.87;;;8.50;;
35028;SDS011;35394;54.282;10.070;2023-12-28T00:15:16;15.60;;;8.15;;
35028;SDS011;35394;54.282;10.070;2023-12-28T00:15:46;13.48;;;8.60;;
35028;SDS011;35394;54.282;10.070;2023-12-28T00:16:17;13.30;;;8.30;;
35028;SDS011;35394;54.282;10.070;2023-12-28T00:16:47;15.05;;;8.65;;
35028;SDS011;35394;54.282;10.070;2023-12-28T00:17:18;13.37;;;8.43;;
35028;SDS011;35394;54.282;10.070;2023-12-28T00:17:48;11.82;;;8.45;;
35028;SDS011;35394;54.282;10.070;2023-12-28T00:18:19;14.00;;;8.33;;
35028;SDS011;35394;54.282;10.070;2023-12-28T00:18:49;12.43;;;8.07;;
35028;SDS011;35394;54.282;10.070;2023-12-28T00:19:20;13.18;;;8.43;;
35028;SDS011;35394;54.282;10.070;2023-12-28T00:19:51;16.97;;;8.33;;
35028;SDS011;35394;54.282;10.070;2023-12-28T00:20:21;11.70;;;7.67;;
35028;SDS011;35394;54.282;10.070;2023-12-28T00:20:52;12.90;;;8.32;;
35028;SDS011;35394;54.282;10.070;2023-12-28T00:21:23;13.25;;;7.65;;
35028;SDS011;35394;54.282;10.070;2023-12-28T00:21:53;13.93;;;7.93;;
35028;SDS011;35394;54.282;10.070;2023-12-28T00:22:24;12.82;;;7.97;;
35028;SDS011;35394;54.282;10.070;2023-12-28T00:22:54;13.18;;;7.63;;
35028;SDS011;35394;54.282;10.070;2023-12-28T00:23:25;13.10;;;7.73;;
35028;SDS011;35394;54.282;10.070;2023-12-28T00:23:55;11.98;;;7.95;;
35028;SDS011;35394;54.282;10.070;2023-12-28T00:24:26;11.53;;;7.50;;
35028;SDS011;35394;54.282;10.070;2023-12-28T00:24:57;12.90;;;7.72;;
35028;SDS011;35394;54.282;10.070;2023-12-28T00:25:27;12.10;;;7.43;;
35028;SDS011;35394;54.282;10.070;2023-12-28T00:25:58;13.60;;;7.70;;
35028;SDS011;35394;54.282;10.070;2023-12-28T00:26:28;12.70;;;7.45;;
35028;SDS011;35394;54.282;10.070;2023-12-28T00:26:59;11.77;;;7.20;;
35028;SDS011;35394;54.282;10.070;2023-12-28T00:27:29;12.53;;;7.90;;
35028;SDS011;35394;54.282;10.070;2023-12-28T00:28:00;13.35;;;7.90;;
35028;SDS011;35394;54.282;10.070;2023-12-28T00:28:30;10.50;;;7.67;;
35028;SDS011;35394;54.282;10.070;2023-12-28T00:29:01;12.02;;;7.60;;
35028;SDS011;35394;54.282;10.070;2023-12-28T00:29:31;11.83;;;7.50;;
35028;SDS011;35394;54.282;10.070;2023-12-28T00:30:05;11.43;;;7.47;;
35028;SDS011;35394;54.282;10.070;2023-12-28T00:30:36;13.73;;;7.50;;
35028;SDS011;35394;54.282;10.070;2023-12-28T00:31:06;11.70;;;7.23;;
35028;SDS011;35394;54.282;10.070;2023-12-28T00:31:37;12.02;;;7.30;;
35028;SDS011;35394;54.282;10.070;2023-12-28T00:32:07;13.03;;;7.60;;
35028;SDS011;35394;54.282;10.070;2023-12-28T00:32:39;12.52;;;7.57;;
35028;SDS011;35394;54.282;10.070;2023-12-28T00:33:13;12.57;;;7.60;;
35028;SDS011;35394;54.282;10.070;2023-12-28T00:33:43;10.90;;;7.07;;
35028;SDS011;35394;54.282;10.070;2023-12-28T00:34:14;11.63;;;7.30;;
35028;SDS011;35394;54.282;10.070;2023-12-28T00:34:45;12.15;;;7.10;;
35028;SDS011;35394;54.282;10.070;2023-12-28T00:35:15;12.83;;;7.53;;
35028;SDS011;35394;54.282;10.070;2023-12-28T00:35:46;13.07;;;7.60;;
35028;SDS011;35394;54.282;10.070;2023-12-28T00:36:16;9.77;;;6.70;;
35028;SDS011;35394;54.282;10.070;2023-12-28T00:36:47;12.30;;;7.37;;
35028;SDS011;35394;54.282;10.070;2023-12-28T00:37:17;13.27;;;7.00;;
35028;SDS011;35394;54.282;10.070;2023-12-28T00:37:48;12.27;;;7.00;;
35028;SDS011;35394;54.282;10.070;2023-12-28T00:38:18;12.07;;;7.35;;
35028;SDS011;35394;54.282;10.070;2023-12-28T00:38:49;11.47;;;7.40;;
35028;SDS011;35394;54.282;10.070;2023-12-28T00:39:19;10.80;;;7.07;;
35028;SDS011;35394;54.282;10.070;2023-12-28T00:39:50;11.50;;;7.53;;
35028;SDS011;35394;54.282;10.070;2023-12-28T00:40:20;12.15;;;7.35;;
35028;SDS011;35394;54.282;10.070;2023-12-28T00:40:51;13.10;;;6.85;;
35028;SDS011;35394;54.282;10.070;2023-12-28T00:41:22;13.23;;;7.47;;
35028;SDS011;35394;54.282;10.070;2023-12-28T00:41:53;13.37;;;7.43;;
35028;SDS011;35394;54.282;10.070;2023-12-28T00:42:23;11.07;;;6.97;;
35028;SDS011;35394;54.282;10.070;2023-12-28T00:42:54;13.10;;;7.88;;
35028;SDS011;35394;54.282;10.070;2023-12-28T00:43:24;12.37;;;7.23;;
35028;SDS011;35394;54.282;10.070;2023-12-28T00:43:55;10.77;;;7.00;;
35028;SDS011;35394;54.282;10.070;2023-12-28T00:44:25;14.03;;;7.60;;
35028;SDS011;35394;54.282;10.070;2023-12-28T00:44:56;11.15;;;7.40;;
35028;SDS011;35394;54.282;10.070;2023-12-28T00:45:26;12.43;;;7.37;;
35028;SDS011;35394;54.282;10.070;2023-12-28T00:45:57;10.70;;;7.27;;
35028;SDS011;35394;54.282;10.070;2023-12-28T00:46:27;11.52;;;7.05;;
35028;SDS011;35394;54.282;10.070;2023-12-28T00:46:58;12.13;;;7.40;;
35028;SDS011;35394;54.282;10.070;2023-12-28T00:47:29;13.15;;;7.40;;
35028;SDS011;35394;54.282;10.070;2023-12-28T00:47:59;13.70;;;7.50;;
35028;SDS011;35394;54.282;10.070;2023-12-28T00:48:30;10.53;;;7.20;;
35028;SDS011;35394;54.282;10.070;2023-12-28T00:49:00;12.38;;;7.50;;
35028;SDS011;35394;54.282;10.070;2023-12-28T00:49:31;11.07;;;7.10;;
35028;SDS011;35394;54.282;10.070;2023-12-28T00:50:01;11.68;;;7.60;;
35028;SDS011;35394;54.282;10.070;2023-12-28T00:50:32;12.10;;;7.37;;
35028;SDS011;35394;54.282;10.070;2023-12-28T00:51:02;11.23;;;7.93;;
35028;SDS011;35394;54.282;10.070;2023-12-28T00:51:33;11.98;;;7.82;;
35028;SDS011;35394;54.282;10.070;2023-12-28T00:52:04;12.80;;;7.82;;
35028;SDS011;35394;54.282;10.070;2023-12-28T00:52:35;11.52;;;7.65;;
35028;SDS011;35394;54.282;10.070;2023-12-28T00:53:05;11.23;;;7.80;;
35028;SDS011;35394;54.282;10.070;2023-12-28T00:53:36;11.48;;;7.35;;
35028;SDS011;35394;54.282;10.070;2023-12-28T00:54:06;10.47;;;7.00;;
35028;SDS011;35394;54.282;10.070;2023-12-28T00:54:37;12.25;;;7.47;;
35028;SDS011;35394;54.282;10.070;2023-12-28T00:55:07;12.43;;;7.30;;
35028;SDS011;35394;54.282;10.070;2023-12-28T00:55:38;12.03;;;7.83;;
35028;SDS011;35394;54.282;10.070;2023-12-28T00:56:09;11.07;;;7.43;;
35028;SDS011;35394;54.282;10.070;2023-12-28T00:56:40;12.90;;;7.68;;
35028;SDS011;35394;54.282;10.070;2023-12-28T00:57:10;11.82;;;7.60;;
35028;SDS011;35394;54.282;10.070;2023-12-28T00:57:41;12.53;;;7.47;;
35028;SDS011;35394;54.282;10.070;2023-12-28T00:58:11;13.05;;;7.60;;
35028;SDS011;35394;54.282;10.070;2023-12-28T00:58:42;11.27;;;7.53;;
35028;SDS011;35394;54.282;10.070;2023-12-28T00:59:13;12.15;;;7.47;;
35028;SDS011;35394;54.282;10.070;2023-12-28T00:59:44;11.03;;;7.27;;
35028;SDS011;35394;54.282;10.070;2023-12-28T01:00:14;12.15;;;7.70;;
35028;SDS011;35394;54.282;10.070;2023-12-28T01:00:45;13.53;;;7.70;;
35028;SDS011;35394;54.282;10.070;2023-12-28T01:01:16;11.32;;;7.63;;
35028;SDS011;35394;54.282;10.070;2023-12-28T01:01:46;12.32;;;8.00;;
35028;SDS011;35394;54.282;10.070;2023-12-28T01:02:17;12.10;;;7.77;;
35028;SDS011;35394;54.282;10.070;2023-12-28T01:02:47;11.35;;;7.80;;
35028;SDS011;35394;54.282;10.070;2023-12-28T01:03:19;13.77;;;8.05;;
35028;SDS011;35394;54.282;10.070;2023-12-28T01:03:50;11.90;;;7.87;;
35028;SDS011;35394;54.282;10.070;2023-12-28T01:04:20;12.10;;;7.50;;
35028;SDS011;35394;54.282;10.070;2023-12-28T01:04:53;10.32;;;7.00;;
35028;SDS011;35394;54.282;10.070;2023-12-28T01:05:23;10.40;;;7.50;;
35028;SDS011;35394;54.282;10.070;2023-12-28T01:05:56;11.85;;;7.30;;
35028;SDS011;35394;54.282;10.070;2023-12-28T01:06:26;11.80;;;7.73;;
35028;SDS011;35394;54.282;10.070;2023-12-28T01:06:58;11.40;;;8.13;;
35028;SDS011;35394;54.282;10.070;2023-12-28T01:07:32;12.10;;;8.60;;
35028;SDS011;35394;54.282;10.070;2023-12-28T01:08:02;11.87;;;8.10;;
35028;SDS011;35394;54.282;10.070;2023-12-28T01:08:33;12.55;;;8.48;;
35028;SDS011;35394;54.282;10.070;2023-12-28T01:09:05;11.80;;;8.38;;
35028;SDS011;35394;54.282;10.070;2023-12-28T01:09:36;11.75;;;8.00;;
35028;SDS011;35394;54.282;10.070;2023-12-28T01:10:07;13.05;;;8.23;;
35028;SDS011;35394;54.282;10.070;2023-12-28T01:10:37;12.60;;;8.27;;
35028;SDS011;35394;54.282;10.070;2023-12-28T01:11:10;13.27;;;8.63;;
35028;SDS011;35394;54.282;10.070;2023-12-28T01:11:41;13.70;;;8.80;;
35028;SDS011;35394;54.282;10.070;2023-12-28T01:12:12;13.43;;;8.73;;
35028;SDS011;35394;54.282;10.070;2023-12-28T01:12:42;15.40;;;9.00;;
35028;SDS011;35394;54.282;10.070;2023-12-28T01:13:13;13.50;;;9.20;;
35028;SDS011;35394;54.282;10.070;2023-12-28T01:13:44;14.70;;;9.10;;
35028;SDS011;35394;54.282;10.070;2023-12-28T01:14:14;13.57;;;8.90;;
35028;SDS011;35394;54.282;10.070;2023-12-28T01:14:45;12.00;;;8.63;;
35028;SDS011;35394;54.282;10.070;2023-12-28T01:15:15;12.53;;;9.07;;
35028;SDS011;35394;54.282;10.070;2023-12-28T01:15:47;14.10;;;9.13;;
35028;SDS011;35394;54.282;10.070;2023-12-28T01:16:18;15.55;;;9.82;;
35028;SDS011;35394;54.282;10.070;2023-12-28T01:16:48;12.73;;;9.10;;
35028;SDS011;35394;54.282;10.070;2023-12-28T01:17:19;13.60;;;9.20;;
35028;SDS011;35394;54.282;10.070;2023-12-28T01:17:49;13.60;;;9.60;;
35028;SDS011;35394;54.282;10.070;2023-12-28T01:18:20;15.52;;;9.57;;
35028;SDS011;35394;54.282;10.070;2023-12-28T01:18:50;15.40;;;9.27;;
35028;SDS011;35394;54.282;10.070;2023-12-28T01:19:21;15.47;;;9.90;;
35028;SDS011;35394;54.282;10.070;2023-12-28T01:19:53;14.50;;;9.60;;
35028;SDS011;35394;54.282;10.070;2023-12-28T01:20:23;15.15;;;9.82;;
35028;SDS011;35394;54.282;10.070;2023-12-28T01:20:54;14.47;;;9.87;;
35028;SDS011;35394;54.282;10.070;2023-12-28T01:21:24;13.95;;;9.90;;
35028;SDS011;35394;54.282;10.070;2023-12-28T01:21:55;14.73;;;9.73;;
35028;SDS011;35394;54.282;10.070;2023-12-28T01:22:25;16.20;;;10.23;;
35028;SDS011;35394;54.282;10.070;2023-12-28T01:22:56;17.38;;;10.15;;
35028;SDS011;35394;54.282;10.070;2023-12-28T01:23:27;14.40;;;9.45;;
35028;SDS011;35394;54.282;10.070;2023-12-28T01:23:58;14.07;;;9.73;;
35028;SDS011;35394;54.282;10.070;2023-12-28T01:24:28;16.67;;;10.13;;
35028;SDS011;35394;54.282;10.070;2023-12-28T01:24:59;16.97;;;10.13;;
35028;SDS011;35394;54.282;10.070;2023-12-28T01:25:29;15.15;;;10.13;;
35028;SDS011;35394;54.282;10.070;2023-12-28T01:26:00;14.97;;;9.90;;
35028;SDS011;35394;54.282;10.070;2023-12-28T01:26:30;14.30;;;10.30;;
35028;SDS011;35394;54.282;10.070;2023-12-28T01:27:01;16.95;;;9.95;;
35028;SDS011;35394;54.282;10.070;2023-12-28T01:27:33;13.97;;;9.80;;
35028;SDS011;35394;54.282;10.070;2023-12-28T01:28:03;14.45;;;10.23;;
35028;SDS011;35394;54.282;10.070;2023-12-28T01:28:34;14.23;;;9.50;;
35028;SDS011;35394;54.282;10.070;2023-12-28T01:29:05;16.40;;;9.90;;
35028;SDS011;35394;54.282;10.070;2023-12-28T01:29:35;13.87;;;9.60;;
35028;SDS011;35394;54.282;10.070;2023-12-28T01:30:06;13.60;;;9.77;;
35028;SDS011;35394;54.282;10.070;2023-12-28T01:30:37;16.13;;;9.80;;
35028;SDS011;35394;54.282;10.070;2023-12-28T01:31:08;15.18;;;9.63;;
35028;SDS011;35394;54.282;10.070;2023-12-28T01:31:38;14.50;;;9.23;;
35028;SDS011;35394;54.282;10.070;2023-12-28T01:32:10;13.90;;;9.75;;
35028;SDS011;35394;54.282;10.070;2023-12-28T01:32:40;15.70;;;8.87;;
35028;SDS011;35394;54.282;10.070;2023-12-28T01:33:11;14.87;;;9.80;;
35028;SDS011;35394;54.282;10.070;2023-12-28T01:33:41;14.85;;;9.18;;
35028;SDS011;35394;54.282;10.070;2023-12-28T01:34:12;14.33;;;8.97;;
35028;SDS011;35394;54.282;10.070;2023-12-28T01:34:43;12.77;;;8.68;;
35028;SDS011;35394;54.282;10.070;2023-12-28T01:35:13;13.95;;;9.48;;
35028;SDS011;35394;54.282;10.070;2023-12-28T01:35:44;16.50;;;9.20;;
35028;SDS011;35394;54.282;10.070;2023-12-28T01:36:17;19.58;;;10.05;;
35028;SDS011;35394;54.282;10.070;2023-12-28T01:36:48;14.82;;;9.32;;
35028;SDS011;35394;54.282;10.070;2023-12-28T01:37:19;15.85;;;9.57;;
35028;SDS011;35394;54.282;10.070;2023-12-28T01:37:49;15.67;;;10.00;;
35028;SDS011;35394;54.282;10.070;2023-12-28T01:38:20;14.13;;;9.25;;
35028;SDS011;35394;54.282;10.070;2023-12-28T01:38:50;16.00;;;9.83;;
35028;SDS011;35394;54.282;10.070;2023-12-28T01:39:21;15.10;;;9.30;;
35028;SDS011;35394;54.282;10.070;2023-12-28T01:39:52;15.52;;;8.95;;
35028;SDS011;35394;54.282;10.070;2023-12-28T01:40:22;13.83;;;9.20;;
35028;SDS011;35394;54.282;10.070;2023-12-28T01:40:53;15.53;;;9.37;;
35028;SDS011;35394;54.282;10.070;2023-12-28T01:41:23;15.70;;;9.38;;
35028;SDS011;35394;54.282;10.070;2023-12-28T01:41:54;14.93;;;8.73;;
35028;SDS011;35394;54.282;10.070;2023-12-28T01:42:25;14.32;;;8.85;;
35028;SDS011;35394;54.282;10.070;2023-12-28T01:42:56;12.80;;;8.40;;
35028;SDS011;35394;54.282;10.070;2023-12-28T01:43:26;13.67;;;8.53;;
35028;SDS011;35394;54.282;10.070;2023-12-28T01:43:57;12.77;;;8.60;;
35028;SDS011;35394;54.282;10.070;2023-12-28T01:44:27;14.70;;;9.30;;
35028;SDS011;35394;54.282;10.070;2023-12-28T01:44:58;12.60;;;8.30;;
35028;SDS011;35394;54.282;10.070;2023-12-28T01:45:28;13.40;;;8.63;;
35028;SDS011;35394;54.282;10.070;2023-12-28T01:45:59;12.83;;;9.20;;
35028;SDS011;35394;54.282;10.070;2023-12-28T01:46:29;16.23;;;9.55;;
35028;SDS011;35394;54.282;10.070;2023-12-28T01:47:01;13.13;;;9.45;;
35028;SDS011;35394;54.282;10.070;2023-12-28T01:47:31;14.02;;;9.52;;
35028;SDS011;35394;54.282;10.070;2023-12-28T01:48:02;13.27;;;9.10;;
35028;SDS011;35394;54.282;10.070;2023-12-28T01:48:33;18.05;;;10.18;;
35028;SDS011;35394;54.282;10.070;2023-12-28T01:49:04;14.98;;;10.07;;
35028;SDS011;35394;54.282;10.070;2023-12-28T01:49:35;15.77;;;9.87;;
35028;SDS011;35394;54.282;10.070;2023-12-28T01:50:06;15.73;;;10.55;;
35028;SDS011;35394;54.282;10.070;2023-12-28T01:50:37;15.83;;;9.53;;
35028;SDS011;35394;54.282;10.070;2023-12-28T01:51:07;13.83;;;9.57;;
35028;SDS011;35394;54.282;10.070;2023-12-28T01:51:38;13.82;;;9.60;;
35028;SDS011;35394;54.282;10.070;2023-12-28T01:52:09;17.05;;;10.30;;
35028;SDS011;35394;54.282;10.070;2023-12-28T01:52:40;15.02;;;9.57;;
35028;SDS011;35394;54.282;10.070;2023-12-28T01:53:11;14.18;;;9.35;;
35028;SDS011;35394;54.282;10.070;2023-12-28T01:53:45;16.63;;;9.50;;
35028;SDS011;35394;54.282;10.070;2023-12-28T01:54:18;14.68;;;9.30;;
35028;SDS011;35394;54.282;10.070;2023-12-28T01:54:48;16.10;;;9.63;;
35028;SDS011;35394;54.282;10.070;2023-12-28T01:55:19;17.80;;;10.20;;
35028;SDS011;35394;54.282;10.070;2023-12-28T01:55:51;15.38;;;9.65;;
35028;SDS011;35394;54.282;10.070;2023-12-28T01:56:22;13.63;;;9.48;;
35028;SDS011;35394;54.282;10.070;2023-12-28T01:56:53;14.20;;;8.80;;
35028;SDS011;35394;54.282;10.070;2023-12-28T01:57:23;15.43;;;9.35;;
35028;SDS011;35394;54.282;10.070;2023-12-28T01:57:54;14.87;;;9.67;;
35028;SDS011;35394;54.282;10.070;2023-12-28T01:58:26;14.77;;;9.40;;
35028;SDS011;35394;54.282;10.070;2023-12-28T01:58:56;14.90;;;9.23;;
35028;SDS011;35394;54.282;10.070;2023-12-28T01:59:27;14.50;;;9.20;;
35028;SDS011;35394;54.282;10.070;2023-12-28T01:59:57;14.25;;;9.50;;
35028;SDS011;35394;54.282;10.070;2023-12-28T02:00:31;14.40;;;9.32;;
35028;SDS011;35394;54.282;10.070;2023-12-28T02:01:01;15.70;;;9.87;;
35028;SDS011;35394;54.282;10.070;2023-12-28T02:01:32;17.85;;;10.20;;
35028;SDS011;35394;54.282;10.070;2023-12-28T02:02:03;15.68;;;10.32;;
35028;SDS011;35394;54.282;10.070;2023-12-28T02:02:33;16.97;;;10.07;;
35028;SDS011;35394;54.282;10.070;2023-12-28T02:03:05;16.98;;;10.32;;
35028;SDS011;35394;54.282;10.070;2023-12-28T02:03:36;18.48;;;10.70;;
35028;SDS011;35394;54.282;10.070;2023-12-28T02:04:07;17.58;;;10.60;;
35028;SDS011;35394;54.282;10.070;2023-12-28T02:04:38;18.77;;;11.00;;
35028;SDS011;35394;54.282;10.070;2023-12-28T02:05:10;15.57;;;9.88;;
35028;SDS011;35394;54.282;10.070;2023-12-28T02:05:42;16.15;;;9.80;;
35028;SDS011;35394;54.282;10.070;2023-12-28T02:06:13;14.63;;;9.40;;
35028;SDS011;35394;54.282;10.070;2023-12-28T02:06:46;17.23;;;10.02;;
35028;SDS011;35394;54.282;10.070;2023-12-28T02:07:16;16.10;;;10.20;;
35028;SDS011;35394;54.282;10.070;2023-12-28T02:07:47;16.17;;;10.48;;
35028;SDS011;35394;54.282;10.070;2023-12-28T02:08:17;17.10;;;10.13;;
35028;SDS011;35394;54.282;10.070;2023-12-28T02:08:48;16.80;;;10.23;;
35028;SDS011;35394;54.282;10.070;2023-12-28T02:09:18;15.32;;;10.05;;
35028;SDS011;35394;54.282;10.070;2023-12-28T02:09:49;17.17;;;10.40;;
35028;SDS011;35394;54.282;10.070;2023-12-28T02:10:19;15.48;;;10.13;;
35028;SDS011;35394;54.282;10.070;2023-12-28T02:10:50;17.97;;;10.00;;
35028;SDS011;35394;54.282;10.070;2023-12-28T02:11:20;15.33;;;10.00;;
35028;SDS011;35394;54.282;10.070;2023-12-28T02:11:51;16.75;;;9.77;;
35028;SDS011;35394;54.282;10.070;2023-12-28T02:12:22;17.33;;;9.88;;
35028;SDS011;35394;54.282;10.070;2023-12-28T02:12:53;16.08;;;10.20;;
35028;SDS011;35394;54.282;10.070;2023-12-28T02:13:25;14.60;;;9.73;;
35028;SDS011;35394;54.282;10.070;2023-12-28T02:13:56;15.88;;;9.88;;
35028;SDS011;35394;54.282;10.070;2023-12-28T02:14:26;14.33;;;9.57;;
35028;SDS011;35394;54.282;10.070;2023-12-28T02:14:57;16.20;;;9.73;;
35028;SDS011;35394;54.282;10.070;2023-12-28T02:15:28;15.93;;;9.85;;
35028;SDS011;35394;54.282;10.070;2023-12-28T02:16:03;15.30;;;10.47;;
35028;SDS011;35394;54.282;10.070;2023-12-28T02:17:00;16.20;;;10.50;;
35028;SDS011;35394;54.282;10.070;2023-12-28T02:18:34;18.98;;;10.45;;
35028;SDS011;35394;54.282;10.070;2023-12-28T02:20:01;19.05;;;10.57;;
35028;SDS011;35394;54.282;10.070;2023-12-28T02:20:35;16.85;;;10.13;;
35028;SDS011;35394;54.282;10.070;2023-12-28T02:21:06;16.02;;;9.77;;
35028;SDS011;35394;54.282;10.070;2023-12-28T02:21:38;16.95;;;9.65;;
35028;SDS011;35394;54.282;10.070;2023-12-28T02:22:09;14.63;;;9.95;;
35028;SDS011;35394;54.282;10.070;2023-12-28T02:22:41;15.32;;;10.32;;
35028;SDS011;35394;54.282;10.070;2023-12-28T02:23:12;15.38;;;10.07;;
35028;SDS011;35394;54.282;10.070;2023-12-28T02:23:48;15.27;;;10.43;;
35028;SDS011;35394;54.282;10.070;2023-12-28T02:24:19;16.92;;;10.52;;
35028;SDS011;35394;54.282;10.070;2023-12-28T02:25:04;15.27;;;9.97;;
35028;SDS011;35394;54.282;10.070;2023-12-28T02:25:38;16.05;;;10.27;;
35028;SDS011;35394;54.282;10.070;2023-12-28T02:26:08;15.57;;;10.30;;
35028;SDS011;35394;54.282;10.070;2023-12-28T02:26:39;15.57;;;9.95;;
35028;SDS011;35394;54.282;10.070;2023-12-28T02:27:10;14.47;;;9.60;;
35028;SDS011;35394;54.282;10.070;2023-12-28T02:28:11;16.25;;;9.52;;
35028;SDS011;35394;54.282;10.070;2023-12-28T02:28:42;16.52;;;9.80;;
35028;SDS011;35394;54.282;10.070;2023-12-28T02:29:13;15.57;;;9.63;;
35028;SDS011;35394;54.282;10.070;2023-12-28T02:29:44;15.45;;;9.82;;
35028;SDS011;35394;54.282;10.070;2023-12-28T02:30:15;14.00;;;9.57;;
35028;SDS011;35394;54.282;10.070;2023-12-28T02:30:47;15.73;;;10.00;;
35028;SDS011;35394;54.282;10.070;2023-12-28T02:31:20;15.70;;;9.50;;
35028;SDS011;35394;54.282;10.070;2023-12-28T02:31:53;13.68;;;9.43;;
35028;SDS011;35394;54.282;10.070;2023-12-28T02:32:35;15.98;;;9.48;;
35028;SDS011;35394;54.282;10.070;2023-12-28T02:33:12;14.95;;;9.38;;
35028;SDS011;35394;54.282;10.070;2023-12-28T02:33:48;15.18;;;9.00;;
35028;SDS011;35394;54.282;10.070;2023-12-28T02:34:23;12.95;;;8.90;;
35028;SDS011;35394;54.282;10.070;2023-12-28T02:35:02;17.08;;;9.68;;
35028;SDS011;35394;54.282;10.070;2023-12-28T02:35:51;15.23;;;9.32;;
35028;SDS011;35394;54.282;10.070;2023-12-28T02:36:27;16.27;;;9.90;;
35028;SDS011;35394;54.282;10.070;2023-12-28T02:36:58;14.93;;;9.93;;
35028;SDS011;35394;54.282;10.070;2023-12-28T02:37:29;15.43;;;9.98;;
35028;SDS011;35394;54.282;10.070;2023-12-28T02:38:10;16.35;;;10.13;;
35028;SDS011;35394;54.282;10.070;2023-12-28T02:38:42;15.38;;;10.00;;
35028;SDS011;35394;54.282;10.070;2023-12-28T02:39:14;15.30;;;9.85;;
35028;SDS011;35394;54.282;10.070;2023-12-28T02:39:45;16.83;;;9.80;;
35028;SDS011;35394;54.282;10.070;2023-12-28T02:40:17;16.50;;;9.93;;
35028;SDS011;35394;54.282;10.070;2023-12-28T02:40:48;15.27;;;10.10;;
35028;SDS011;35394;54.282;10.070;2023-12-28T02:41:19;15.43;;;9.50;;
35028;SDS011;35394;54.282;10.070;2023-12-28T02:41:50;14.75;;;9.65;;
35028;SDS011;35394;54.282;10.070;2023-12-28T02:42:20;16.17;;;9.33;;
35028;SDS011;35394;54.282;10.070;2023-12-28T02:42:51;14.52;;;9.20;;
35028;SDS011;35394;54.282;10.070;2023-12-28T02:43:21;15.10;;;9.53;;
35028;SDS011;35394;54.282;10.070;2023-12-28T02:43:52;15.88;;;9.60;;
35028;SDS011;35394;54.282;10.070;2023-12-28T02:44:23;14.68;;;9.68;;
35028;SDS011;35394;54.282;10.070;2023-12-28T02:44:53;13.57;;;9.10;;
35028;SDS011;35394;54.282;10.070;2023-12-28T02:45:24;13.98;;;9.30;;
35028;SDS011;35394;54.282;10.070;2023-12-28T02:45:55;13.93;;;9.10;;
35028;SDS011;35394;54.282;10.070;2023-12-28T02:46:26;14.10;;;9.23;;
35028;SDS011;35394;54.282;10.070;2023-12-28T02:46:56;15.50;;;9.38;;
35028;SDS011;35394;54.282;10.070;2023-12-28T02:47:27;14.43;;;9.10;;
35028;SDS011;35394;54.282;10.070;2023-12-28T02:47:57;16.95;;;9.55;;
35028;SDS011;35394;54.282;10.070;2023-12-28T02:48:28;14.77;;;9.60;;
35028;SDS011;35394;54.282;10.070;2023-12-28T02:48:59;16.00;;;9.80;;
35028;SDS011;35394;54.282;10.070;2023-12-28T02:49:29;14.80;;;9.50;;
35028;SDS011;35394;54.282;10.070;2023-12-28T02:50:00;15.30;;;9.50;;
35028;SDS011;35394;54.282;10.070;2023-12-28T02:50:33;13.63;;;9.33;;
35028;SDS011;35394;54.282;10.070;2023-12-28T02:51:04;14.73;;;9.50;;
35028;SDS011;35394;54.282;10.070;2023-12-28T02:51:35;13.70;;;9.35;;
35028;SDS011;35394;54.282;10.070;2023-12-28T02:52:06;13.82;;;9.00;;
35028;SDS011;35394;54.282;10.070;2023-12-28T02:52:36;15.03;;;9.10;;
35028;SDS011;35394;54.282;10.070;2023-12-28T02:53:07;14.43;;;9.50;;
35028;SDS011;35394;54.282;10.070;2023-12-28T02:53:37;14.40;;;10.13;;
35028;SDS011;35394;54.282;10.070;2023-12-28T02:54:08;14.00;;;9.57;;
35028;SDS011;35394;54.282;10.070;2023-12-28T02:54:38;16.47;;;9.80;;
35028;SDS011;35394;54.282;10.070;2023-12-28T02:55:09;19.15;;;9.90;;
35028;SDS011;35394;54.282;10.070;2023-12-28T02:55:40;16.05;;;9.75;;
35028;SDS011;35394;54.282;10.070;2023-12-28T02:56:10;15.70;;;10.00;;
35028;SDS011;35394;54.282;10.070;2023-12-28T02:56:41;18.85;;;9.60;;
35028;SDS011;35394;54.282;10.070;2023-12-28T02:57:11;15.23;;;9.88;;
35028;SDS011;35394;54.282;10.070;2023-12-28T02:57:43;16.63;;;9.90;;
35028;SDS011;35394;54.282;10.070;2023-12-28T02:58:14;13.32;;;9.55;;
35028;SDS011;35394;54.282;10.070;2023-12-28T02:58:44;15.93;;;9.95;;
35028;SDS011;35394;54.282;10.070;2023-12-28T02:59:15;16.67;;;10.13;;
35028;SDS011;35394;54.282;10.070;2023-12-28T02:59:46;14.85;;;9.60;;
35028;SDS011;35394;54.282;10.070;2023-12-28T03:00:16;14.35;;;9.38;;
35028;SDS011;35394;54.282;10.070;2023-12-28T03:00:47;17.37;;;9.73;;
35028;SDS011;35394;54.282;10.070;2023-12-28T03:01:18;17.30;;;9.80;;
35028;SDS011;35394;54.282;10.070;2023-12-28T03:01:49;13.60;;;9.20;;
35028;SDS011;35394;54.282;10.070;2023-12-28T03:02:20;16.03;;;9.40;;
35028;SDS011;35394;54.282;10.070;2023-12-28T03:02:50;17.23;;;9.93;;
35028;SDS011;35394;54.282;10.070;2023-12-28T03:03:21;15.02;;;9.63;;
35028;SDS011;35394;54.282;10.070;2023-12-28T03:03:52;13.83;;;9.43;;
35028;SDS011;35394;54.282;10.070;2023-12-28T03:04:22;14.05;;;9.10;;
35028;SDS011;35394;54.282;10.070;2023-12-28T03:04:52;13.70;;;9.23;;